広州 の空港の天気 - METARとTAF

広州白雲国際空港 ( ZGGG / CAN ) - 中国 広東省広州市
飛行場実況気象(Metar)
観測時間01/23 11:00 CST (01/23 03:00 UTC)
風向・風速不定 1m/s
視程5000m
天気現象煙霧
全天の4割程度の雲 雲底高度 700m
気温25℃
湿度65%
気圧1018hPa
METARZGGG 230300Z VRB01MPS 5000 HZ SCT023 25/18 Q1018 NOSIG
過去の天気等 Google飛行場航空写真 Wunderground天気予報

過去48時間のMETAR

飛行場予報(TAF)
発表時間: 1/23 05:03 CST (1/22 21:03 UTC)
予報対象時間: 23日8時 CST ~ 24日8時 CST
風向・風速東南東 3m/s
視程6000m
全天の8割程度の雲 雲底高度 910m
TAF ZGGG 222103Z 2300/2324 12003MPS 6000 BKN030 TX26/2307Z TN19/2322Z